This is the latest recevied weather packets stored in our database for station/object YS1AHL-29. If no packets are shown the sender has not sent any weather packets the latest 10 day(s).
| Time | Temp. | Humidity | Pressure | Rain* | Wind** | Luminosity | Snow |
|---|---|---|---|---|---|---|---|
| 1777495075 | 16.11° C | 73% | 1024 hPa | 0 mm | - | - | - |
| 1777494474 | 15.56° C | 75% | 1024 hPa | 0 mm | - | - | - |
| 1777493934 | 15.56° C | 75% | 1024 hPa | 0 mm | - | - | - |
| 1777493874 | 15.56° C | 75% | 1024 hPa | 0 mm | - | - | - |
| 1777493333 | 16.67° C | 67% | 1024 hPa | 0 mm | - | - | - |
| 1777493273 | 16.67° C | 67% | 1024 hPa | 0 mm | - | - | - |
| 1777492733 | 15.56° C | 74% | 1025 hPa | 0 mm | - | - | - |
| 1777492072 | 15.56° C | 75% | 1025 hPa | 0 mm | - | - | - |
| 1777491532 | 15.56° C | 77% | 1025 hPa | 0 mm | - | - | - |
| 1777491471 | 15.56° C | 77% | 1025 hPa | 0 mm | - | - | - |
| 1777490931 | 15.56° C | 77% | 1024 hPa | 0 mm | - | - | - |
| 1777490871 | 15.56° C | 77% | 1024 hPa | 0 mm | - | - | - |
| 1777490330 | 15° C | 79% | 1025 hPa | 0 mm | - | - | - |
| 1777490270 | 15° C | 79% | 1025 hPa | 0 mm | - | - | - |
| 1777489730 | 16.11° C | 73% | 1025 hPa | 0 mm | - | - | - |
| 1777489669 | 16.11° C | 73% | 1025 hPa | 0 mm | - | - | - |
| 1777489129 | 15° C | 81% | 1025 hPa | 0 mm | - | - | - |
| 1777489069 | 15° C | 81% | 1025 hPa | 0 mm | - | - | - |
| 1777488529 | 15° C | 81% | 1025 hPa | 0 mm | - | - | - |
| 1777487928 | 15° C | 79% | 1025 hPa | 0 mm | - | - | - |
| 1777487868 | 15° C | 79% | 1025 hPa | 0 mm | - | - | - |
| 1777487327 | 14.44° C | 82% | 1025 hPa | 0 mm | - | - | - |
| 1777487267 | 14.44° C | 82% | 1025 hPa | 0 mm | - | - | - |
| 1777486727 | 15° C | 82% | 1025 hPa | 0 mm | - | - | - |
| 1777486666 | 15° C | 82% | 1025 hPa | 0 mm | - | - | - |
* Rain latest hour (hover to see other rain measurements)
** Current wind speed in m/s (hover to see current wind gust speed)